sensor_id;sensor_type;location;lat;lon;timestamp;pressure;altitude;pressure_sealevel;temperature;humidity
46955;BME280;32708;51.212;6.788;2023-04-16T00:00:29;101371.81;;;13.12;100.00
46955;BME280;32708;51.212;6.788;2023-04-16T00:02:55;101375.16;;;12.91;100.00
46955;BME280;32708;51.212;6.788;2023-04-16T00:05:21;101373.28;;;13.18;100.00
46955;BME280;32708;51.212;6.788;2023-04-16T00:07:47;101375.72;;;13.28;100.00
46955;BME280;32708;51.212;6.788;2023-04-16T00:10:16;101374.47;;;12.77;100.00
46955;BME280;32708;51.212;6.788;2023-04-16T00:12:42;101382.44;;;12.96;100.00
46955;BME280;32708;51.212;6.788;2023-04-16T00:15:08;101370.69;;;13.13;100.00
46955;BME280;32708;51.212;6.788;2023-04-16T00:17:35;101372.28;;;13.14;100.00
46955;BME280;32708;51.212;6.788;2023-04-16T00:20:01;101371.00;;;13.11;100.00
46955;BME280;32708;51.212;6.788;2023-04-16T00:22:27;101369.47;;;13.45;100.00
46955;BME280;32708;51.212;6.788;2023-04-16T00:24:53;101376.63;;;13.06;100.00
46955;BME280;32708;51.212;6.788;2023-04-16T00:27:19;101377.09;;;13.00;100.00
46955;BME280;32708;51.212;6.788;2023-04-16T00:29:45;101364.94;;;13.40;100.00
46955;BME280;32708;51.212;6.788;2023-04-16T00:32:12;101374.63;;;13.38;100.00
46955;BME280;32708;51.212;6.788;2023-04-16T00:34:38;101384.72;;;13.11;100.00
46955;BME280;32708;51.212;6.788;2023-04-16T00:37:04;101378.81;;;13.44;100.00
46955;BME280;32708;51.212;6.788;2023-04-16T00:39:30;101379.03;;;12.99;100.00
46955;BME280;32708;51.212;6.788;2023-04-16T00:41:56;101381.38;;;13.32;100.00
46955;BME280;32708;51.212;6.788;2023-04-16T00:44:22;101387.31;;;13.08;100.00
46955;BME280;32708;51.212;6.788;2023-04-16T00:46:49;101374.94;;;13.62;100.00
46955;BME280;32708;51.212;6.788;2023-04-16T00:49:16;101379.56;;;13.18;100.00
46955;BME280;32708;51.212;6.788;2023-04-16T00:51:42;101379.41;;;13.15;100.00
46955;BME280;32708;51.212;6.788;2023-04-16T00:54:08;101376.53;;;13.63;100.00
46955;BME280;32708;51.212;6.788;2023-04-16T00:56:35;101374.44;;;13.69;100.00
46955;BME280;32708;51.212;6.788;2023-04-16T00:59:01;101389.00;;;13.43;100.00
46955;BME280;32708;51.212;6.788;2023-04-16T01:01:27;101375.41;;;13.82;100.00
46955;BME280;32708;51.212;6.788;2023-04-16T01:03:54;101380.91;;;13.56;100.00
46955;BME280;32708;51.212;6.788;2023-04-16T01:06:20;101386.72;;;13.45;100.00
46955;BME280;32708;51.212;6.788;2023-04-16T01:08:47;101372.97;;;13.80;100.00
46955;BME280;32708;51.212;6.788;2023-04-16T01:11:14;101386.00;;;13.14;100.00
46955;BME280;32708;51.212;6.788;2023-04-16T01:13:41;101398.88;;;12.87;100.00
46955;BME280;32708;51.212;6.788;2023-04-16T01:16:10;101398.63;;;12.66;100.00
46955;BME280;32708;51.212;6.788;2023-04-16T01:18:38;101392.03;;;13.25;100.00
46955;BME280;32708;51.212;6.788;2023-04-16T01:21:04;101397.97;;;13.18;100.00
46955;BME280;32708;51.212;6.788;2023-04-16T01:23:32;101387.34;;;13.34;100.00
46955;BME280;32708;51.212;6.788;2023-04-16T01:25:58;101391.22;;;13.33;100.00
46955;BME280;32708;51.212;6.788;2023-04-16T01:28:24;101401.78;;;13.00;100.00
46955;BME280;32708;51.212;6.788;2023-04-16T01:30:51;101390.03;;;13.08;100.00
46955;BME280;32708;51.212;6.788;2023-04-16T01:33:26;101406.50;;;13.08;100.00
46955;BME280;32708;51.212;6.788;2023-04-16T01:35:52;101399.44;;;13.24;100.00
46955;BME280;32708;51.212;6.788;2023-04-16T01:38:18;101402.91;;;12.99;100.00
46955;BME280;32708;51.212;6.788;2023-04-16T01:40:44;101399.97;;;13.43;100.00
46955;BME280;32708;51.212;6.788;2023-04-16T01:43:11;101402.06;;;13.46;100.00
46955;BME280;32708;51.212;6.788;2023-04-16T01:45:37;101408.34;;;13.30;100.00
46955;BME280;32708;51.212;6.788;2023-04-16T01:48:04;101407.03;;;13.27;100.00
46955;BME280;32708;51.212;6.788;2023-04-16T01:50:30;101406.97;;;13.10;100.00
46955;BME280;32708;51.212;6.788;2023-04-16T01:52:56;101399.44;;;13.50;100.00
46955;BME280;32708;51.212;6.788;2023-04-16T01:55:22;101402.28;;;13.02;100.00
46955;BME280;32708;51.212;6.788;2023-04-16T01:57:50;101404.94;;;13.50;100.00
46955;BME280;32708;51.212;6.788;2023-04-16T02:00:16;101409.53;;;12.98;100.00
46955;BME280;32708;51.212;6.788;2023-04-16T02:02:46;101405.47;;;12.86;100.00
46955;BME280;32708;51.212;6.788;2023-04-16T02:05:18;101404.84;;;13.07;100.00
46955;BME280;32708;51.212;6.788;2023-04-16T02:07:45;101404.03;;;12.98;100.00
46955;BME280;32708;51.212;6.788;2023-04-16T02:10:12;101407.97;;;12.65;100.00
46955;BME280;32708;51.212;6.788;2023-04-16T02:12:39;101412.31;;;12.58;100.00
46955;BME280;32708;51.212;6.788;2023-04-16T02:15:06;101402.06;;;13.29;100.00
46955;BME280;32708;51.212;6.788;2023-04-16T02:17:32;101407.22;;;13.39;100.00
46955;BME280;32708;51.212;6.788;2023-04-16T02:20:10;101414.84;;;12.94;100.00
46955;BME280;32708;51.212;6.788;2023-04-16T02:22:56;101405.69;;;13.16;100.00
46955;BME280;32708;51.212;6.788;2023-04-16T02:25:23;101402.19;;;13.33;100.00
46955;BME280;32708;51.212;6.788;2023-04-16T02:27:52;101403.03;;;13.51;100.00
46955;BME280;32708;51.212;6.788;2023-04-16T02:30:34;101401.94;;;12.94;100.00
46955;BME280;32708;51.212;6.788;2023-04-16T02:33:00;101408.72;;;12.97;100.00
46955;BME280;32708;51.212;6.788;2023-04-16T02:35:28;101405.38;;;13.17;100.00
46955;BME280;32708;51.212;6.788;2023-04-16T02:37:54;101408.13;;;13.17;100.00
46955;BME280;32708;51.212;6.788;2023-04-16T02:40:21;101399.94;;;13.26;100.00
46955;BME280;32708;51.212;6.788;2023-04-16T02:42:47;101406.13;;;12.92;100.00
46955;BME280;32708;51.212;6.788;2023-04-16T02:45:14;101410.66;;;12.97;100.00
46955;BME280;32708;51.212;6.788;2023-04-16T02:47:40;101407.34;;;13.34;100.00
46955;BME280;32708;51.212;6.788;2023-04-16T02:50:08;101412.94;;;13.03;100.00
46955;BME280;32708;51.212;6.788;2023-04-16T02:52:34;101414.31;;;12.83;100.00
46955;BME280;32708;51.212;6.788;2023-04-16T02:55:00;101413.03;;;13.46;100.00
46955;BME280;32708;51.212;6.788;2023-04-16T02:57:26;101404.69;;;13.03;100.00
46955;BME280;32708;51.212;6.788;2023-04-16T02:59:52;101412.84;;;12.77;100.00
46955;BME280;32708;51.212;6.788;2023-04-16T03:02:18;101414.75;;;12.68;100.00
46955;BME280;32708;51.212;6.788;2023-04-16T03:04:44;101414.28;;;12.75;100.00
46955;BME280;32708;51.212;6.788;2023-04-16T03:07:10;101412.84;;;13.43;100.00
46955;BME280;32708;51.212;6.788;2023-04-16T03:09:38;101414.91;;;13.20;100.00
46955;BME280;32708;51.212;6.788;2023-04-16T03:12:04;101420.66;;;13.01;100.00
46955;BME280;32708;51.212;6.788;2023-04-16T03:14:31;101416.84;;;12.71;100.00
46955;BME280;32708;51.212;6.788;2023-04-16T03:16:57;101425.53;;;12.64;100.00
46955;BME280;32708;51.212;6.788;2023-04-16T03:19:23;101423.19;;;13.46;100.00
46955;BME280;32708;51.212;6.788;2023-04-16T03:21:49;101429.72;;;12.62;100.00
46955;BME280;32708;51.212;6.788;2023-04-16T03:24:17;101429.69;;;12.53;100.00
46955;BME280;32708;51.212;6.788;2023-04-16T03:26:43;101435.94;;;12.45;100.00
46955;BME280;32708;51.212;6.788;2023-04-16T03:29:10;101429.47;;;12.81;100.00
46955;BME280;32708;51.212;6.788;2023-04-16T03:31:36;101425.03;;;13.11;100.00
46955;BME280;32708;51.212;6.788;2023-04-16T03:34:02;101427.28;;;13.00;100.00
46955;BME280;32708;51.212;6.788;2023-04-16T03:36:30;101424.78;;;12.73;100.00
46955;BME280;32708;51.212;6.788;2023-04-16T03:38:56;101429.94;;;13.23;100.00
46955;BME280;32708;51.212;6.788;2023-04-16T03:41:23;101422.91;;;12.99;100.00
46955;BME280;32708;51.212;6.788;2023-04-16T03:43:49;101418.97;;;13.23;100.00
46955;BME280;32708;51.212;6.788;2023-04-16T03:46:15;101433.63;;;12.78;100.00
46955;BME280;32708;51.212;6.788;2023-04-16T03:48:41;101434.16;;;12.80;100.00
46955;BME280;32708;51.212;6.788;2023-04-16T03:51:07;101426.41;;;13.22;100.00
46955;BME280;32708;51.212;6.788;2023-04-16T03:53:33;101430.50;;;13.02;100.00
46955;BME280;32708;51.212;6.788;2023-04-16T03:55:59;101417.84;;;13.84;100.00
46955;BME280;32708;51.212;6.788;2023-04-16T03:58:27;101429.78;;;13.28;100.00
46955;BME280;32708;51.212;6.788;2023-04-16T04:00:53;101427.84;;;13.28;100.00
46955;BME280;32708;51.212;6.788;2023-04-16T04:03:20;101424.22;;;13.10;100.00
46955;BME280;32708;51.212;6.788;2023-04-16T04:05:48;101430.63;;;12.88;100.00
46955;BME280;32708;51.212;6.788;2023-04-16T04:08:21;101423.50;;;13.44;100.00
46955;BME280;32708;51.212;6.788;2023-04-16T04:10:48;101426.56;;;13.43;100.00
46955;BME280;32708;51.212;6.788;2023-04-16T04:13:14;101410.75;;;14.00;100.00
46955;BME280;32708;51.212;6.788;2023-04-16T04:15:41;101427.91;;;13.06;100.00
46955;BME280;32708;51.212;6.788;2023-04-16T04:18:07;101431.22;;;13.25;100.00
46955;BME280;32708;51.212;6.788;2023-04-16T04:20:33;101425.50;;;13.13;100.00
46955;BME280;32708;51.212;6.788;2023-04-16T04:23:00;101438.88;;;12.97;100.00
46955;BME280;32708;51.212;6.788;2023-04-16T04:25:26;101437.72;;;12.89;100.00
46955;BME280;32708;51.212;6.788;2023-04-16T04:27:53;101429.06;;;13.13;100.00
46955;BME280;32708;51.212;6.788;2023-04-16T04:30:19;101434.50;;;13.44;100.00
46955;BME280;32708;51.212;6.788;2023-04-16T04:32:45;101437.84;;;13.41;100.00
46955;BME280;32708;51.212;6.788;2023-04-16T04:35:11;101446.03;;;13.15;100.00
46955;BME280;32708;51.212;6.788;2023-04-16T04:37:37;101449.63;;;13.42;100.00
46955;BME280;32708;51.212;6.788;2023-04-16T04:40:12;101453.72;;;13.05;100.00
46955;BME280;32708;51.212;6.788;2023-04-16T04:42:38;101445.47;;;13.62;100.00
46955;BME280;32708;51.212;6.788;2023-04-16T04:45:05;101456.06;;;13.29;100.00
46955;BME280;32708;51.212;6.788;2023-04-16T04:47:33;101455.31;;;13.71;100.00
46955;BME280;32708;51.212;6.788;2023-04-16T04:49:59;101457.59;;;13.04;100.00
46955;BME280;32708;51.212;6.788;2023-04-16T04:52:26;101455.75;;;13.30;100.00
46955;BME280;32708;51.212;6.788;2023-04-16T04:54:52;101456.63;;;13.65;100.00
46955;BME280;32708;51.212;6.788;2023-04-16T04:57:19;101452.22;;;13.30;100.00
46955;BME280;32708;51.212;6.788;2023-04-16T04:59:45;101458.78;;;13.20;100.00
46955;BME280;32708;51.212;6.788;2023-04-16T05:02:13;101464.19;;;13.51;100.00
46955;BME280;32708;51.212;6.788;2023-04-16T05:04:39;101461.41;;;13.42;100.00
46955;BME280;32708;51.212;6.788;2023-04-16T05:07:05;101458.94;;;13.15;100.00
46955;BME280;32708;51.212;6.788;2023-04-16T05:09:32;101463.06;;;13.69;100.00
46955;BME280;32708;51.212;6.788;2023-04-16T05:11:58;101468.88;;;13.51;100.00
46955;BME280;32708;51.212;6.788;2023-04-16T05:14:24;101463.53;;;13.71;100.00
46955;BME280;32708;51.212;6.788;2023-04-16T05:16:50;101464.69;;;13.88;100.00
46955;BME280;32708;51.212;6.788;2023-04-16T05:19:16;101475.97;;;13.52;100.00
46955;BME280;32708;51.212;6.788;2023-04-16T05:21:42;101477.59;;;13.70;100.00
46955;BME280;32708;51.212;6.788;2023-04-16T05:24:09;101489.00;;;13.37;100.00
46955;BME280;32708;51.212;6.788;2023-04-16T05:26:35;101482.13;;;13.83;100.00
46955;BME280;32708;51.212;6.788;2023-04-16T05:29:01;101483.25;;;13.99;100.00
46955;BME280;32708;51.212;6.788;2023-04-16T05:31:27;101483.25;;;13.99;100.00
46955;BME280;32708;51.212;6.788;2023-04-16T05:33:53;101486.81;;;13.74;100.00
46955;BME280;32708;51.212;6.788;2023-04-16T05:36:19;101495.66;;;13.54;100.00
46955;BME280;32708;51.212;6.788;2023-04-16T05:38:46;101490.19;;;14.05;100.00
46955;BME280;32708;51.212;6.788;2023-04-16T05:41:12;101492.94;;;13.88;100.00
46955;BME280;32708;51.212;6.788;2023-04-16T05:43:38;101504.19;;;13.43;100.00
46955;BME280;32708;51.212;6.788;2023-04-16T05:46:04;101502.31;;;14.04;100.00
46955;BME280;32708;51.212;6.788;2023-04-16T05:48:30;101506.34;;;13.98;100.00
46955;BME280;32708;51.212;6.788;2023-04-16T05:50:57;101501.63;;;13.64;100.00
46955;BME280;32708;51.212;6.788;2023-04-16T05:53:23;101508.59;;;13.70;100.00
46955;BME280;32708;51.212;6.788;2023-04-16T05:55:49;101510.22;;;14.06;100.00
46955;BME280;32708;51.212;6.788;2023-04-16T05:58:16;101511.25;;;13.27;100.00
46955;BME280;32708;51.212;6.788;2023-04-16T06:00:42;101521.44;;;12.95;100.00
46955;BME280;32708;51.212;6.788;2023-04-16T06:03:08;101524.81;;;13.32;100.00
46955;BME280;32708;51.212;6.788;2023-04-16T06:05:35;101522.88;;;12.93;100.00
46955;BME280;32708;51.212;6.788;2023-04-16T06:08:01;101529.91;;;13.16;100.00
46955;BME280;32708;51.212;6.788;2023-04-16T06:10:27;101534.38;;;13.12;100.00
46955;BME280;32708;51.212;6.788;2023-04-16T06:12:53;101531.13;;;13.02;100.00
46955;BME280;32708;51.212;6.788;2023-04-16T06:15:20;101523.69;;;13.33;100.00
46955;BME280;32708;51.212;6.788;2023-04-16T06:17:46;101527.75;;;13.44;100.00
46955;BME280;32708;51.212;6.788;2023-04-16T06:20:12;101547.47;;;13.15;100.00
46955;BME280;32708;51.212;6.788;2023-04-16T06:22:38;101529.59;;;13.84;100.00
46955;BME280;32708;51.212;6.788;2023-04-16T06:25:05;101542.38;;;13.23;100.00
46955;BME280;32708;51.212;6.788;2023-04-16T06:27:31;101538.38;;;13.37;100.00
46955;BME280;32708;51.212;6.788;2023-04-16T06:29:58;101544.72;;;13.55;100.00
46955;BME280;32708;51.212;6.788;2023-04-16T06:32:25;101534.88;;;13.71;100.00
46955;BME280;32708;51.212;6.788;2023-04-16T06:34:51;101546.88;;;13.27;100.00
46955;BME280;32708;51.212;6.788;2023-04-16T06:37:17;101555.47;;;13.34;100.00
46955;BME280;32708;51.212;6.788;2023-04-16T06:39:43;101546.38;;;13.82;100.00
46955;BME280;32708;51.212;6.788;2023-04-16T06:42:10;101559.78;;;13.27;100.00
46955;BME280;32708;51.212;6.788;2023-04-16T06:44:39;101560.34;;;13.46;100.00
46955;BME280;32708;51.212;6.788;2023-04-16T06:47:05;101554.28;;;13.75;100.00
46955;BME280;32708;51.212;6.788;2023-04-16T06:49:31;101554.81;;;13.94;100.00
46955;BME280;32708;51.212;6.788;2023-04-16T06:51:57;101571.00;;;12.85;100.00
46955;BME280;32708;51.212;6.788;2023-04-16T06:54:23;101567.59;;;13.11;100.00
46955;BME280;32708;51.212;6.788;2023-04-16T06:56:50;101568.84;;;12.96;100.00
46955;BME280;32708;51.212;6.788;2023-04-16T06:59:16;101569.19;;;13.43;100.00
46955;BME280;32708;51.212;6.788;2023-04-16T07:01:43;101568.09;;;13.13;100.00
46955;BME280;32708;51.212;6.788;2023-04-16T07:04:11;101577.91;;;12.74;100.00
46955;BME280;32708;51.212;6.788;2023-04-16T07:06:37;101569.72;;;13.14;100.00
46955;BME280;32708;51.212;6.788;2023-04-16T07:09:03;101574.53;;;12.77;100.00
46955;BME280;32708;51.212;6.788;2023-04-16T07:11:29;101572.63;;;13.17;100.00
46955;BME280;32708;51.212;6.788;2023-04-16T07:13:58;101569.53;;;13.41;100.00
46955;BME280;32708;51.212;6.788;2023-04-16T07:16:25;101563.50;;;13.79;100.00
46955;BME280;32708;51.212;6.788;2023-04-16T07:18:51;101569.28;;;13.69;100.00
46955;BME280;32708;51.212;6.788;2023-04-16T07:21:18;101566.59;;;13.29;100.00
46955;BME280;32708;51.212;6.788;2023-04-16T07:23:44;101578.44;;;13.47;100.00
46955;BME280;32708;51.212;6.788;2023-04-16T07:26:11;101564.19;;;14.02;100.00
46955;BME280;32708;51.212;6.788;2023-04-16T07:28:37;101573.66;;;13.78;100.00
46955;BME280;32708;51.212;6.788;2023-04-16T07:31:03;101571.56;;;13.84;100.00
46955;BME280;32708;51.212;6.788;2023-04-16T07:33:33;101568.59;;;13.46;100.00
46955;BME280;32708;51.212;6.788;2023-04-16T07:35:59;101576.31;;;13.13;100.00
46955;BME280;32708;51.212;6.788;2023-04-16T07:38:25;101583.63;;;13.17;100.00
46955;BME280;32708;51.212;6.788;2023-04-16T07:40:51;101561.56;;;13.97;100.00
46955;BME280;32708;51.212;6.788;2023-04-16T07:43:18;101562.88;;;14.34;100.00
46955;BME280;32708;51.212;6.788;2023-04-16T07:45:50;101564.19;;;13.93;100.00
46955;BME280;32708;51.212;6.788;2023-04-16T07:48:18;101573.88;;;14.17;100.00
46955;BME280;32708;51.212;6.788;2023-04-16T07:50:45;101584.00;;;13.73;100.00
46955;BME280;32708;51.212;6.788;2023-04-16T07:53:11;101572.41;;;14.45;100.00
46955;BME280;32708;51.212;6.788;2023-04-16T07:55:37;101573.22;;;14.54;100.00
46955;BME280;32708;51.212;6.788;2023-04-16T07:58:03;101576.44;;;14.39;100.00
46955;BME280;32708;51.212;6.788;2023-04-16T08:00:31;101575.50;;;14.61;100.00
46955;BME280;32708;51.212;6.788;2023-04-16T08:02:58;101581.47;;;14.37;100.00
46955;BME280;32708;51.212;6.788;2023-04-16T08:05:26;101578.09;;;14.57;100.00
46955;BME280;32708;51.212;6.788;2023-04-16T08:07:55;101593.41;;;14.07;100.00
46955;BME280;32708;51.212;6.788;2023-04-16T08:10:33;101591.31;;;14.55;100.00
46955;BME280;32708;51.212;6.788;2023-04-16T08:13:00;101591.31;;;14.64;100.00
46955;BME280;32708;51.212;6.788;2023-04-16T08:15:26;101596.50;;;14.31;100.00
46955;BME280;32708;51.212;6.788;2023-04-16T08:17:53;101594.97;;;15.03;100.00
46955;BME280;32708;51.212;6.788;2023-04-16T08:20:19;101596.69;;;15.54;100.00
46955;BME280;32708;51.212;6.788;2023-04-16T08:22:45;101582.69;;;14.92;100.00
46955;BME280;32708;51.212;6.788;2023-04-16T08:25:12;101587.81;;;15.10;100.00
46955;BME280;32708;51.212;6.788;2023-04-16T08:27:39;101597.63;;;15.29;100.00
46955;BME280;32708;51.212;6.788;2023-04-16T08:30:06;101606.06;;;14.51;100.00
46955;BME280;32708;51.212;6.788;2023-04-16T08:32:32;101607.50;;;14.22;100.00
46955;BME280;32708;51.212;6.788;2023-04-16T08:34:59;101614.91;;;14.82;100.00
46955;BME280;32708;51.212;6.788;2023-04-16T08:37:25;101599.56;;;15.28;100.00
46955;BME280;32708;51.212;6.788;2023-04-16T08:39:51;101610.41;;;14.61;100.00
46955;BME280;32708;51.212;6.788;2023-04-16T08:42:49;101614.44;;;14.54;100.00
46955;BME280;32708;51.212;6.788;2023-04-16T08:45:18;101617.19;;;14.37;100.00
46955;BME280;32708;51.212;6.788;2023-04-16T08:47:52;101615.25;;;14.72;100.00
46955;BME280;32708;51.212;6.788;2023-04-16T08:50:24;101614.13;;;14.65;100.00
46955;BME280;32708;51.212;6.788;2023-04-16T08:52:55;101621.69;;;14.94;100.00
46955;BME280;32708;51.212;6.788;2023-04-16T08:55:47;101601.94;;;15.77;100.00
46955;BME280;32708;51.212;6.788;2023-04-16T08:58:19;101613.88;;;15.04;100.00
46955;BME280;32708;51.212;6.788;2023-04-16T09:00:48;101606.41;;;16.11;100.00
46955;BME280;32708;51.212;6.788;2023-04-16T09:03:14;101601.63;;;15.99;100.00
46955;BME280;32708;51.212;6.788;2023-04-16T09:05:42;101593.56;;;15.73;100.00
46955;BME280;32708;51.212;6.788;2023-04-16T09:08:08;101599.66;;;16.08;100.00
46955;BME280;32708;51.212;6.788;2023-04-16T09:10:35;101587.78;;;16.70;97.16
46955;BME280;32708;51.212;6.788;2023-04-16T09:13:02;101599.84;;;16.78;98.35
46955;BME280;32708;51.212;6.788;2023-04-16T09:15:29;101600.75;;;16.49;98.70
46955;BME280;32708;51.212;6.788;2023-04-16T09:17:55;101602.06;;;16.10;100.00
46955;BME280;32708;51.212;6.788;2023-04-16T09:20:22;101609.22;;;15.81;100.00
46955;BME280;32708;51.212;6.788;2023-04-16T09:22:48;101614.97;;;15.67;100.00
46955;BME280;32708;51.212;6.788;2023-04-16T09:25:15;101606.00;;;16.42;98.65
46955;BME280;32708;51.212;6.788;2023-04-16T09:27:42;101608.31;;;15.30;99.87
46955;BME280;32708;51.212;6.788;2023-04-16T09:30:26;101610.75;;;15.91;100.00
46955;BME280;32708;51.212;6.788;2023-04-16T09:33:14;101624.44;;;15.40;100.00
46955;BME280;32708;51.212;6.788;2023-04-16T09:35:52;101613.44;;;16.29;98.57
46955;BME280;32708;51.212;6.788;2023-04-16T09:38:19;101620.66;;;16.13;99.41
46955;BME280;32708;51.212;6.788;2023-04-16T09:40:46;101618.38;;;16.36;98.65
46955;BME280;32708;51.212;6.788;2023-04-16T09:43:17;101609.31;;;15.93;99.26
46955;BME280;32708;51.212;6.788;2023-04-16T09:45:51;101622.75;;;16.16;100.00
46955;BME280;32708;51.212;6.788;2023-04-16T09:48:32;101619.13;;;16.45;97.64
46955;BME280;32708;51.212;6.788;2023-04-16T09:51:00;101621.91;;;16.57;98.75
46955;BME280;32708;51.212;6.788;2023-04-16T09:53:29;101623.75;;;16.53;96.71
46955;BME280;32708;51.212;6.788;2023-04-16T09:56:04;101618.28;;;16.86;95.89
46955;BME280;32708;51.212;6.788;2023-04-16T09:58:35;101619.47;;;16.97;95.45
46955;BME280;32708;51.212;6.788;2023-04-16T10:03:35;101618.72;;;16.76;97.19
46955;BME280;32708;51.212;6.788;2023-04-16T10:06:17;101626.09;;;16.42;97.35
46955;BME280;32708;51.212;6.788;2023-04-16T10:08:48;101639.41;;;15.60;100.00
46955;BME280;32708;51.212;6.788;2023-04-16T10:11:17;101640.69;;;16.43;98.64
46955;BME280;32708;51.212;6.788;2023-04-16T10:13:43;101636.44;;;16.87;95.56
46955;BME280;32708;51.212;6.788;2023-04-16T10:16:10;101637.16;;;15.92;100.00
46955;BME280;32708;51.212;6.788;2023-04-16T10:18:41;101630.69;;;16.80;93.90
46955;BME280;32708;51.212;6.788;2023-04-16T10:21:08;101628.81;;;16.51;94.83
46955;BME280;32708;51.212;6.788;2023-04-16T10:23:38;101628.56;;;17.10;93.35
46955;BME280;32708;51.212;6.788;2023-04-16T10:26:05;101619.09;;;16.87;91.21
46955;BME280;32708;51.212;6.788;2023-04-16T10:28:31;101628.75;;;16.93;93.66
46955;BME280;32708;51.212;6.788;2023-04-16T10:31:04;101633.09;;;16.19;96.67
46955;BME280;32708;51.212;6.788;2023-04-16T10:33:39;101631.84;;;16.37;96.99
46955;BME280;32708;51.212;6.788;2023-04-16T10:36:24;101632.09;;;17.44;92.54
46955;BME280;32708;51.212;6.788;2023-04-16T10:38:56;101624.41;;;17.74;90.73
46955;BME280;32708;51.212;6.788;2023-04-16T10:41:25;101632.41;;;17.42;92.81
46955;BME280;32708;51.212;6.788;2023-04-16T10:43:52;101619.31;;;17.64;88.60
46955;BME280;32708;51.212;6.788;2023-04-16T10:46:40;101626.91;;;17.67;90.45
46955;BME280;32708;51.212;6.788;2023-04-16T10:49:34;101623.06;;;17.10;91.94
46955;BME280;32708;51.212;6.788;2023-04-16T10:52:14;101603.06;;;17.25;89.56
46955;BME280;32708;51.212;6.788;2023-04-16T10:54:42;101615.97;;;17.46;90.80
46955;BME280;32708;51.212;6.788;2023-04-16T10:57:15;101602.41;;;17.77;86.05
46955;BME280;32708;51.212;6.788;2023-04-16T10:59:43;101612.28;;;18.15;84.95
46955;BME280;32708;51.212;6.788;2023-04-16T11:02:18;101614.25;;;18.02;85.13
46955;BME280;32708;51.212;6.788;2023-04-16T11:04:47;101616.78;;;17.95;85.47
46955;BME280;32708;51.212;6.788;2023-04-16T11:07:31;101610.44;;;18.07;84.77
46955;BME280;32708;51.212;6.788;2023-04-16T11:10:02;101608.44;;;18.20;83.31
46955;BME280;32708;51.212;6.788;2023-04-16T11:12:35;101615.84;;;17.42;86.14
46955;BME280;32708;51.212;6.788;2023-04-16T11:15:05;101611.03;;;17.64;82.43
46955;BME280;32708;51.212;6.788;2023-04-16T11:17:43;101607.00;;;17.98;82.61
46955;BME280;32708;51.212;6.788;2023-04-16T11:20:18;101598.13;;;18.45;76.91
46955;BME280;32708;51.212;6.788;2023-04-16T11:22:45;101614.09;;;18.23;79.93
46955;BME280;32708;51.212;6.788;2023-04-16T11:25:12;101629.19;;;17.40;84.50
46955;BME280;32708;51.212;6.788;2023-04-16T11:27:38;101625.22;;;17.74;82.33
46955;BME280;32708;51.212;6.788;2023-04-16T11:30:08;101611.78;;;18.53;81.31
46955;BME280;32708;51.212;6.788;2023-04-16T11:32:37;101616.81;;;18.63;80.84
46955;BME280;32708;51.212;6.788;2023-04-16T11:35:16;101630.84;;;17.90;84.35
46955;BME280;32708;51.212;6.788;2023-04-16T11:37:44;101636.81;;;17.68;83.72
46955;BME280;32708;51.212;6.788;2023-04-16T11:40:11;101619.94;;;18.62;79.68
46955;BME280;32708;51.212;6.788;2023-04-16T11:42:40;101626.53;;;18.17;81.47
46955;BME280;32708;51.212;6.788;2023-04-16T11:45:09;101629.09;;;18.10;80.21
46955;BME280;32708;51.212;6.788;2023-04-16T11:47:49;101632.09;;;17.44;83.63
46955;BME280;32708;51.212;6.788;2023-04-16T11:52:49;101627.00;;;18.07;80.43
46955;BME280;32708;51.212;6.788;2023-04-16T11:55:16;101632.78;;;17.53;82.24
46955;BME280;32708;51.212;6.788;2023-04-16T11:57:43;101625.66;;;17.52;81.55
46955;BME280;32708;51.212;6.788;2023-04-16T12:00:12;101625.41;;;18.06;80.68
46955;BME280;32708;51.212;6.788;2023-04-16T12:02:45;101623.09;;;17.47;80.53
46955;BME280;32708;51.212;6.788;2023-04-16T12:05:36;101608.88;;;18.62;72.55
46955;BME280;32708;51.212;6.788;2023-04-16T12:08:11;101612.03;;;18.48;71.78
46955;BME280;32708;51.212;6.788;2023-04-16T12:10:54;101607.78;;;19.22;67.08
46955;BME280;32708;51.212;6.788;2023-04-16T12:13:20;101611.75;;;19.57;65.34
46955;BME280;32708;51.212;6.788;2023-04-16T12:15:52;101605.00;;;19.38;65.56
46955;BME280;32708;51.212;6.788;2023-04-16T12:18:22;101621.88;;;19.33;66.29
46955;BME280;32708;51.212;6.788;2023-04-16T12:20:49;101617.97;;;19.66;66.17
46955;BME280;32708;51.212;6.788;2023-04-16T12:23:32;101630.75;;;18.79;69.43
46955;BME280;32708;51.212;6.788;2023-04-16T12:26:06;101635.72;;;18.74;70.30
46955;BME280;32708;51.212;6.788;2023-04-16T12:28:37;101628.38;;;19.57;67.70
46955;BME280;32708;51.212;6.788;2023-04-16T12:31:05;101631.78;;;19.18;69.74
46955;BME280;32708;51.212;6.788;2023-04-16T12:33:32;101637.13;;;19.43;68.40
46955;BME280;32708;51.212;6.788;2023-04-16T12:35:58;101632.78;;;18.42;69.32
46955;BME280;32708;51.212;6.788;2023-04-16T12:38:24;101639.13;;;18.42;68.95
46955;BME280;32708;51.212;6.788;2023-04-16T12:40:51;101631.50;;;19.55;64.80
46955;BME280;32708;51.212;6.788;2023-04-16T12:43:19;101633.25;;;19.60;64.35
46955;BME280;32708;51.212;6.788;2023-04-16T12:45:46;101632.41;;;19.12;65.27
46955;BME280;32708;51.212;6.788;2023-04-16T12:48:12;101641.22;;;18.46;67.54
46955;BME280;32708;51.212;6.788;2023-04-16T12:50:38;101637.81;;;18.24;67.61
46955;BME280;32708;51.212;6.788;2023-04-16T12:53:05;101635.16;;;19.12;64.96